createdAt,value
2022-12-01T05:00:33.772Z,15.68
2022-12-01T05:04:46.052Z,12.43
2022-12-01T05:08:59.355Z,14.93
2022-12-01T05:13:10.841Z,16.05
2022-12-01T05:17:22.454Z,15.00
2022-12-01T05:21:33.941Z,14.00
2022-12-01T05:25:45.524Z,17.42
2022-12-01T05:29:57.033Z,16.92
2022-12-01T05:34:09.095Z,14.50
2022-12-01T05:38:21.189Z,13.80
2022-12-01T05:42:32.767Z,12.95
2022-12-01T05:46:44.312Z,16.67
2022-12-01T05:50:55.910Z,15.95
2022-12-01T05:55:07.742Z,14.55
2022-12-01T05:59:19.308Z,13.23
2022-12-01T06:03:30.810Z,15.63
2022-12-01T06:07:42.932Z,17.20
2022-12-01T06:11:54.472Z,13.38
2022-12-01T06:16:06.625Z,11.55
2022-12-01T06:20:18.366Z,14.95
2022-12-01T06:24:29.902Z,13.10
2022-12-01T06:28:41.408Z,14.38
2022-12-01T06:32:52.923Z,12.05
2022-12-01T06:37:04.543Z,10.75
2022-12-01T06:41:16.023Z,9.20
2022-12-01T06:45:27.588Z,8.73
2022-12-01T06:49:39.094Z,7.55
2022-12-01T06:54:00.862Z,8.60
2022-12-01T06:58:16.688Z,7.78
2022-12-01T07:02:28.358Z,9.05
2022-12-01T07:06:39.936Z,8.68
2022-12-01T07:11:08.545Z,8.40
2022-12-01T07:15:20.091Z,9.75
2022-12-01T07:19:31.650Z,8.93
2022-12-01T07:23:43.154Z,9.30
2022-12-01T07:27:54.630Z,9.63
2022-12-01T07:32:06.247Z,7.80
2022-12-01T07:36:17.758Z,8.88
2022-12-01T07:40:29.266Z,9.25
2022-12-01T07:44:40.762Z,8.98
2022-12-01T07:48:56.669Z,9.57
2022-12-01T07:53:08.174Z,10.57
2022-12-01T07:57:20.477Z,9.27
2022-12-01T08:01:32.420Z,10.60
2022-12-01T08:05:44.000Z,9.38
2022-12-01T08:09:55.475Z,10.82
2022-12-01T08:14:07.011Z,10.20
2022-12-01T08:18:18.622Z,13.52
2022-12-01T08:22:30.177Z,11.32
2022-12-01T08:26:41.762Z,10.77
2022-12-01T08:30:53.348Z,12.68
2022-12-01T08:35:05.283Z,10.57
2022-12-01T08:39:16.826Z,12.40
2022-12-01T08:43:56.149Z,13.98
2022-12-01T08:48:00.906Z,11.60
2022-12-01T08:52:12.408Z,11.48
2022-12-01T08:56:30.284Z,14.20
2022-12-01T09:00:41.868Z,14.07
2022-12-01T09:04:53.345Z,12.95
2022-12-01T09:09:05.280Z,12.85
2022-12-01T09:13:16.814Z,14.63
2022-12-01T09:17:28.412Z,14.82
2022-12-01T09:21:40.441Z,12.80
2022-12-01T09:25:52.926Z,14.55
2022-12-01T09:30:05.172Z,14.80
2022-12-01T09:34:19.762Z,21.98
2022-12-01T09:38:33.217Z,15.93
2022-12-01T09:42:47.511Z,15.82
2022-12-01T09:47:09.098Z,19.70
2022-12-01T09:51:23.917Z,18.85
2022-12-01T09:55:35.740Z,16.25
2022-12-01T09:59:47.859Z,16.92
2022-12-01T10:04:05.778Z,19.23
2022-12-01T10:08:26.839Z,15.82
2022-12-01T10:12:42.229Z,17.05
2022-12-01T10:17:12.994Z,18.23
2022-12-01T10:21:49.386Z,18.35
2022-12-01T10:26:14.439Z,20.20
2022-12-01T10:30:27.099Z,19.08
2022-12-01T10:34:41.788Z,18.15
2022-12-01T10:38:53.957Z,18.73
2022-12-01T10:43:05.441Z,17.52
2022-12-01T10:47:22.026Z,14.85
2022-12-01T10:51:50.238Z,14.82
2022-12-01T10:56:08.603Z,15.50
2022-12-01T11:00:58.041Z,13.98
2022-12-01T11:05:07.476Z,16.05
2022-12-01T11:09:30.058Z,17.25
2022-12-01T11:13:42.222Z,17.33
2022-12-01T11:18:02.745Z,16.70
2022-12-01T11:22:25.123Z,19.38
2022-12-01T11:26:36.639Z,16.92
2022-12-01T11:30:59.273Z,16.15
2022-12-01T11:35:13.628Z,17.13
2022-12-01T11:39:42.388Z,15.50
2022-12-01T11:44:01.459Z,14.52
2022-12-01T11:48:15.286Z,17.10
2022-12-01T11:52:36.607Z,15.70
2022-12-01T11:56:56.193Z,15.00
2022-12-01T12:01:46.010Z,18.55
2022-12-01T12:06:38.432Z,15.75
2022-12-01T12:10:55.721Z,19.00
2022-12-01T12:15:43.203Z,17.70
2022-12-01T12:20:23.850Z,18.25
2022-12-01T12:24:51.544Z,17.30
2022-12-01T12:29:32.324Z,19.50
2022-12-01T12:34:10.816Z,17.87
2022-12-01T12:38:54.233Z,16.00
2022-12-01T12:43:48.403Z,17.10
2022-12-01T12:48:28.219Z,15.97
2022-12-01T12:52:44.543Z,16.40
2022-12-01T12:57:03.411Z,15.68
2022-12-01T13:01:23.062Z,18.20
2022-12-01T13:05:47.508Z,16.77
2022-12-01T13:10:08.501Z,16.20
2022-12-01T13:14:27.799Z,15.55
2022-12-01T13:18:42.350Z,18.13
2022-12-01T13:22:54.847Z,17.37
2022-12-01T13:27:16.193Z,15.95
2022-12-01T13:31:28.307Z,16.50
2022-12-01T13:35:40.729Z,16.17
2022-12-01T13:39:54.420Z,17.13
2022-12-01T13:44:08.835Z,16.52
2022-12-01T13:48:48.243Z,16.48
2022-12-01T13:53:23.621Z,18.48
2022-12-01T13:57:48.945Z,18.20
2022-12-01T14:02:15.843Z,17.30
2022-12-01T14:06:52.396Z,17.27
2022-12-01T14:11:19.529Z,17.70
2022-12-01T14:15:42.388Z,19.15
2022-12-01T14:19:55.632Z,18.30
2022-12-01T14:24:07.380Z,21.65
2022-12-01T14:29:10.789Z,18.15
2022-12-01T14:33:57.759Z,20.05
2022-12-01T14:38:10.425Z,18.42
2022-12-01T14:42:53.348Z,19.17
2022-12-01T14:47:16.972Z,17.27
2022-12-01T14:51:34.858Z,18.92
2022-12-01T14:55:53.154Z,16.75
2022-12-01T15:00:06.691Z,18.70
2022-12-01T15:04:18.665Z,16.83
2022-12-01T15:13:30.495Z,17.45
2022-12-01T15:17:41.987Z,18.90
2022-12-01T15:21:53.435Z,21.13
2022-12-01T15:26:05.067Z,21.90
2022-12-01T15:30:16.787Z,18.33
2022-12-01T15:34:32.251Z,22.48
2022-12-01T15:38:47.102Z,17.57
2022-12-01T15:43:06.974Z,17.27
2022-12-01T15:47:37.801Z,18.02
2022-12-01T15:51:50.545Z,16.90
2022-12-01T15:56:11.138Z,19.63
2022-12-01T16:00:23.164Z,17.10
2022-12-01T16:04:35.364Z,18.17
2022-12-01T16:08:59.431Z,17.40
2022-12-01T16:13:36.063Z,17.73
2022-12-01T16:17:52.760Z,17.77
2022-12-01T16:22:10.215Z,19.10
2022-12-01T16:26:22.659Z,16.17
2022-12-01T16:30:36.978Z,15.10
2022-12-01T16:34:50.780Z,19.70
2022-12-01T16:39:07.172Z,16.60
2022-12-01T16:43:21.406Z,17.17
2022-12-01T16:47:32.888Z,14.60
2022-12-01T16:51:59.268Z,15.03
2022-12-01T16:56:13.993Z,14.77
2022-12-01T17:00:26.032Z,14.77
2022-12-01T17:04:37.629Z,13.27
2022-12-01T17:08:49.220Z,14.00
2022-12-01T17:13:00.732Z,14.13
2022-12-01T17:17:12.183Z,13.15
2022-12-01T17:21:23.625Z,16.38
2022-12-01T17:25:35.379Z,14.70
2022-12-01T17:29:47.024Z,13.30
2022-12-01T17:33:58.606Z,11.77
2022-12-01T17:38:10.160Z,15.65
2022-12-01T17:42:22.092Z,14.93
2022-12-01T17:46:33.636Z,14.48
2022-12-01T17:50:45.339Z,12.68
2022-12-01T17:54:56.840Z,12.17
2022-12-01T17:59:08.453Z,13.63
2022-12-01T18:03:20.748Z,14.60
2022-12-01T18:07:32.282Z,16.27
2022-12-01T18:11:43.771Z,17.00
2022-12-01T18:15:55.272Z,18.17
2022-12-01T18:20:07.552Z,19.60
2022-12-01T18:24:19.034Z,15.30
2022-12-01T18:28:30.909Z,19.77
2022-12-01T18:32:42.400Z,21.63
2022-12-01T18:36:53.969Z,19.23
2022-12-01T18:41:05.696Z,19.53
2022-12-01T18:45:21.287Z,18.70
2022-12-01T18:49:33.011Z,20.10
2022-12-01T18:53:47.743Z,22.40
2022-12-01T18:57:59.319Z,21.30
2022-12-01T19:02:10.830Z,22.30
2022-12-01T19:06:22.643Z,20.47
2022-12-01T19:10:34.350Z,22.20
2022-12-01T19:14:45.953Z,23.07
2022-12-01T19:18:57.432Z,24.47
2022-12-01T19:23:08.877Z,24.37
2022-12-01T19:27:21.873Z,24.53
2022-12-01T19:31:34.126Z,23.60
2022-12-01T19:35:47.554Z,20.27
2022-12-01T19:39:59.055Z,23.43
2022-12-01T19:44:11.691Z,22.57
2022-12-01T19:48:23.490Z,23.60
2022-12-01T19:52:36.529Z,23.77
2022-12-01T19:56:48.921Z,22.07
2022-12-01T20:01:09.977Z,24.83
2022-12-01T20:05:21.792Z,29.03
2022-12-01T20:09:33.362Z,24.43
2022-12-01T20:13:46.067Z,24.83
2022-12-01T20:17:57.507Z,23.45
2022-12-01T20:22:08.960Z,22.08
2022-12-01T20:26:24.907Z,23.93
2022-12-01T20:30:40.538Z,21.33
2022-12-01T20:34:52.231Z,25.07
2022-12-01T20:39:05.528Z,22.30
2022-12-01T20:43:17.504Z,24.27
2022-12-01T20:47:29.048Z,22.60
2022-12-01T20:51:40.550Z,30.03
2022-12-01T20:55:52.150Z,28.30
2022-12-01T21:00:05.518Z,29.10
2022-12-01T21:04:17.588Z,26.73
2022-12-01T21:08:29.188Z,21.13
2022-12-01T21:13:01.219Z,23.30
2022-12-01T21:17:41.928Z,20.15
2022-12-01T21:21:53.376Z,21.13
2022-12-01T21:26:13.932Z,21.10
2022-12-01T21:30:26.266Z,19.70
2022-12-01T21:34:37.878Z,22.33
2022-12-01T21:38:54.926Z,21.75
2022-12-01T21:43:22.540Z,19.20
2022-12-01T21:47:34.615Z,26.50
2022-12-01T21:51:48.015Z,25.45
2022-12-01T21:55:59.478Z,28.98
2022-12-01T22:00:26.513Z,25.45
2022-12-01T22:04:37.928Z,26.55
2022-12-01T22:08:59.606Z,25.13
2022-12-01T22:13:11.042Z,23.65
2022-12-01T22:17:22.554Z,23.93
2022-12-01T22:21:37.250Z,21.58
2022-12-01T22:25:48.802Z,24.58
